sensor_id;sensor_type;location;lat;lon;timestamp;P1;durP1;ratioP1;P2;durP2;ratioP2
60430;SDS011;46285;45.122;20.726;2023-02-13T00:07:33;206.60;;;99.18;;
60430;SDS011;46285;45.122;20.726;2023-02-13T00:17:34;167.45;;;83.97;;
60430;SDS011;46285;45.122;20.726;2023-02-13T00:27:35;167.57;;;85.95;;
60430;SDS011;46285;45.122;20.726;2023-02-13T00:37:37;159.13;;;81.03;;
60430;SDS011;46285;45.122;20.726;2023-02-13T00:47:38;94.60;;;54.28;;
60430;SDS011;46285;45.122;20.726;2023-02-13T00:57:39;109.00;;;58.67;;
60430;SDS011;46285;45.122;20.726;2023-02-13T01:07:40;105.80;;;52.60;;
60430;SDS011;46285;45.122;20.726;2023-02-13T01:17:41;105.82;;;55.05;;
60430;SDS011;46285;45.122;20.726;2023-02-13T01:27:42;94.03;;;50.05;;
60430;SDS011;46285;45.122;20.726;2023-02-13T01:37:44;83.80;;;46.35;;
60430;SDS011;46285;45.122;20.726;2023-02-13T01:47:53;79.57;;;41.28;;
60430;SDS011;46285;45.122;20.726;2023-02-13T01:58:00;74.28;;;42.92;;
60430;SDS011;46285;45.122;20.726;2023-02-13T02:08:03;76.60;;;44.25;;
60430;SDS011;46285;45.122;20.726;2023-02-13T02:18:09;72.40;;;42.72;;
60430;SDS011;46285;45.122;20.726;2023-02-13T03:08:39;83.65;;;49.13;;
60430;SDS011;46285;45.122;20.726;2023-02-13T03:18:45;85.60;;;49.03;;
60430;SDS011;46285;45.122;20.726;2023-02-13T03:28:58;75.07;;;44.55;;
60430;SDS011;46285;45.122;20.726;2023-02-13T03:39:07;87.35;;;47.70;;
60430;SDS011;46285;45.122;20.726;2023-02-13T03:49:10;89.07;;;52.08;;
60430;SDS011;46285;45.122;20.726;2023-02-13T03:59:21;77.25;;;46.63;;
60430;SDS011;46285;45.122;20.726;2023-02-13T04:09:23;88.18;;;49.25;;
60430;SDS011;46285;45.122;20.726;2023-02-13T04:19:25;92.35;;;53.08;;
60430;SDS011;46285;45.122;20.726;2023-02-13T04:29:26;78.07;;;49.13;;
60430;SDS011;46285;45.122;20.726;2023-02-13T04:39:27;77.55;;;48.35;;
60430;SDS011;46285;45.122;20.726;2023-02-13T04:49:28;111.63;;;62.83;;
60430;SDS011;46285;45.122;20.726;2023-02-13T04:59:29;213.43;;;113.35;;
60430;SDS011;46285;45.122;20.726;2023-02-13T05:09:30;201.20;;;104.88;;
60430;SDS011;46285;45.122;20.726;2023-02-13T05:19:32;171.43;;;92.00;;
60430;SDS011;46285;45.122;20.726;2023-02-13T05:29:33;141.48;;;80.45;;
60430;SDS011;46285;45.122;20.726;2023-02-13T05:39:35;143.35;;;79.90;;
60430;SDS011;46285;45.122;20.726;2023-02-13T05:49:36;149.90;;;83.20;;
60430;SDS011;46285;45.122;20.726;2023-02-13T05:59:37;133.38;;;76.93;;
60430;SDS011;46285;45.122;20.726;2023-02-13T06:09:38;153.95;;;85.70;;
60430;SDS011;46285;45.122;20.726;2023-02-13T06:19:39;185.45;;;106.35;;
60430;SDS011;46285;45.122;20.726;2023-02-13T06:29:40;171.55;;;100.75;;
60430;SDS011;46285;45.122;20.726;2023-02-13T06:39:41;179.05;;;103.97;;
60430;SDS011;46285;45.122;20.726;2023-02-13T06:49:42;167.65;;;98.13;;
60430;SDS011;46285;45.122;20.726;2023-02-13T06:59:44;217.40;;;131.15;;
60430;SDS011;46285;45.122;20.726;2023-02-13T07:09:45;304.17;;;180.38;;
60430;SDS011;46285;45.122;20.726;2023-02-13T07:19:46;256.35;;;157.48;;
60430;SDS011;46285;45.122;20.726;2023-02-13T07:29:47;182.05;;;106.13;;
60430;SDS011;46285;45.122;20.726;2023-02-13T07:39:48;90.40;;;56.97;;
60430;SDS011;46285;45.122;20.726;2023-02-13T07:49:49;143.38;;;82.22;;
60430;SDS011;46285;45.122;20.726;2023-02-13T07:59:50;188.68;;;113.25;;
60430;SDS011;46285;45.122;20.726;2023-02-13T08:09:51;96.43;;;62.75;;
60430;SDS011;46285;45.122;20.726;2023-02-13T08:19:53;111.32;;;69.47;;
60430;SDS011;46285;45.122;20.726;2023-02-13T08:29:54;99.13;;;66.22;;
60430;SDS011;46285;45.122;20.726;2023-02-13T08:39:55;105.80;;;69.75;;
60430;SDS011;46285;45.122;20.726;2023-02-13T08:49:56;108.32;;;74.13;;
60430;SDS011;46285;45.122;20.726;2023-02-13T08:59:57;104.57;;;68.35;;
60430;SDS011;46285;45.122;20.726;2023-02-13T09:09:58;78.22;;;49.47;;
60430;SDS011;46285;45.122;20.726;2023-02-13T09:19:59;35.35;;;24.13;;
60430;SDS011;46285;45.122;20.726;2023-02-13T09:30:01;99.05;;;64.80;;
60430;SDS011;46285;45.122;20.726;2023-02-13T09:40:02;80.53;;;54.95;;
60430;SDS011;46285;45.122;20.726;2023-02-13T09:50:04;65.57;;;42.22;;
60430;SDS011;46285;45.122;20.726;2023-02-13T10:00:12;55.17;;;34.08;;
60430;SDS011;46285;45.122;20.726;2023-02-13T10:10:21;41.20;;;30.13;;
60430;SDS011;46285;45.122;20.726;2023-02-13T10:20:36;56.80;;;37.38;;
60430;SDS011;46285;45.122;20.726;2023-02-13T10:31:20;99.53;;;67.53;;
60430;SDS011;46285;45.122;20.726;2023-02-13T10:51:30;72.78;;;43.85;;
60430;SDS011;46285;45.122;20.726;2023-02-13T11:11:44;43.78;;;28.50;;
60430;SDS011;46285;45.122;20.726;2023-02-13T11:21:47;47.58;;;28.58;;
60430;SDS011;46285;45.122;20.726;2023-02-13T11:42:16;51.92;;;35.75;;
60430;SDS011;46285;45.122;20.726;2023-02-13T11:52:23;28.02;;;18.20;;
60430;SDS011;46285;45.122;20.726;2023-02-13T12:02:29;31.00;;;20.98;;
60430;SDS011;46285;45.122;20.726;2023-02-13T12:12:32;36.60;;;23.93;;
60430;SDS011;46285;45.122;20.726;2023-02-13T12:23:08;31.92;;;21.23;;
60430;SDS011;46285;45.122;20.726;2023-02-13T13:03:54;30.20;;;19.80;;
60430;SDS011;46285;45.122;20.726;2023-02-13T13:13:56;30.40;;;23.00;;
60430;SDS011;46285;45.122;20.726;2023-02-13T13:24:21;64.13;;;40.13;;
60430;SDS011;46285;45.122;20.726;2023-02-13T13:34:25;58.85;;;41.35;;
60430;SDS011;46285;45.122;20.726;2023-02-13T13:54:34;62.72;;;43.20;;
60430;SDS011;46285;45.122;20.726;2023-02-13T14:04:38;66.00;;;45.03;;
60430;SDS011;46285;45.122;20.726;2023-02-13T14:24:40;74.93;;;51.45;;
60430;SDS011;46285;45.122;20.726;2023-02-13T14:34:42;44.10;;;32.25;;
60430;SDS011;46285;45.122;20.726;2023-02-13T14:44:50;39.22;;;28.38;;
60430;SDS011;46285;45.122;20.726;2023-02-13T14:54:54;116.82;;;64.68;;
60430;SDS011;46285;45.122;20.726;2023-02-13T15:05:00;96.80;;;60.58;;
60430;SDS011;46285;45.122;20.726;2023-02-13T15:15:24;89.57;;;56.15;;
60430;SDS011;46285;45.122;20.726;2023-02-13T15:35:32;70.97;;;51.45;;
60430;SDS011;46285;45.122;20.726;2023-02-13T15:45:34;182.55;;;104.32;;
60430;SDS011;46285;45.122;20.726;2023-02-13T15:55:35;183.48;;;105.20;;
60430;SDS011;46285;45.122;20.726;2023-02-13T16:05:37;267.58;;;149.07;;
60430;SDS011;46285;45.122;20.726;2023-02-13T16:15:40;361.55;;;217.80;;
60430;SDS011;46285;45.122;20.726;2023-02-13T16:25:42;252.35;;;156.73;;
60430;SDS011;46285;45.122;20.726;2023-02-13T16:45:45;470.63;;;311.40;;
60430;SDS011;46285;45.122;20.726;2023-02-13T16:55:46;247.05;;;146.75;;
60430;SDS011;46285;45.122;20.726;2023-02-13T17:05:47;318.65;;;192.93;;
60430;SDS011;46285;45.122;20.726;2023-02-13T17:15:48;540.60;;;309.20;;
60430;SDS011;46285;45.122;20.726;2023-02-13T17:25:49;434.23;;;249.07;;
60430;SDS011;46285;45.122;20.726;2023-02-13T17:35:54;380.73;;;207.70;;
60430;SDS011;46285;45.122;20.726;2023-02-13T17:45:55;476.30;;;277.63;;
60430;SDS011;46285;45.122;20.726;2023-02-13T17:55:56;562.25;;;340.08;;
60430;SDS011;46285;45.122;20.726;2023-02-13T18:05:58;644.78;;;384.67;;
60430;SDS011;46285;45.122;20.726;2023-02-13T18:15:59;616.65;;;378.80;;
60430;SDS011;46285;45.122;20.726;2023-02-13T18:26:04;606.83;;;374.33;;
60430;SDS011;46285;45.122;20.726;2023-02-13T18:36:06;600.67;;;377.50;;
60430;SDS011;46285;45.122;20.726;2023-02-13T18:46:07;597.03;;;385.08;;
60430;SDS011;46285;45.122;20.726;2023-02-13T18:56:09;513.70;;;329.27;;
60430;SDS011;46285;45.122;20.726;2023-02-13T19:06:11;543.20;;;345.05;;
60430;SDS011;46285;45.122;20.726;2023-02-13T19:16:14;615.22;;;385.27;;
60430;SDS011;46285;45.122;20.726;2023-02-13T19:26:17;664.15;;;407.35;;
60430;SDS011;46285;45.122;20.726;2023-02-13T19:36:19;673.45;;;424.02;;
60430;SDS011;46285;45.122;20.726;2023-02-13T19:46:22;664.88;;;420.42;;
60430;SDS011;46285;45.122;20.726;2023-02-13T19:56:24;723.10;;;450.35;;
60430;SDS011;46285;45.122;20.726;2023-02-13T20:06:26;686.15;;;429.17;;
60430;SDS011;46285;45.122;20.726;2023-02-13T20:16:28;653.28;;;412.70;;
60430;SDS011;46285;45.122;20.726;2023-02-13T20:26:29;438.67;;;265.25;;
60430;SDS011;46285;45.122;20.726;2023-02-13T20:36:30;369.92;;;206.43;;
60430;SDS011;46285;45.122;20.726;2023-02-13T20:46:32;341.63;;;187.50;;
60430;SDS011;46285;45.122;20.726;2023-02-13T20:56:33;294.45;;;166.90;;
60430;SDS011;46285;45.122;20.726;2023-02-13T21:06:35;289.35;;;155.52;;
60430;SDS011;46285;45.122;20.726;2023-02-13T21:16:38;137.48;;;82.40;;
60430;SDS011;46285;45.122;20.726;2023-02-13T21:26:39;160.27;;;93.25;;
60430;SDS011;46285;45.122;20.726;2023-02-13T21:36:40;236.68;;;130.50;;
60430;SDS011;46285;45.122;20.726;2023-02-13T21:46:42;130.38;;;73.80;;
60430;SDS011;46285;45.122;20.726;2023-02-13T21:56:44;188.07;;;108.13;;
60430;SDS011;46285;45.122;20.726;2023-02-13T22:06:49;114.40;;;65.55;;
60430;SDS011;46285;45.122;20.726;2023-02-13T22:16:50;131.03;;;69.23;;
60430;SDS011;46285;45.122;20.726;2023-02-13T22:26:51;114.88;;;64.22;;
60430;SDS011;46285;45.122;20.726;2023-02-13T22:36:53;92.97;;;53.58;;
60430;SDS011;46285;45.122;20.726;2023-02-13T22:46:54;127.97;;;70.30;;
60430;SDS011;46285;45.122;20.726;2023-02-13T22:56:55;110.90;;;62.78;;
60430;SDS011;46285;45.122;20.726;2023-02-13T23:06:56;111.15;;;64.80;;
60430;SDS011;46285;45.122;20.726;2023-02-13T23:16:57;100.72;;;56.63;;
60430;SDS011;46285;45.122;20.726;2023-02-13T23:26:58;202.55;;;103.82;;
60430;SDS011;46285;45.122;20.726;2023-02-13T23:37:00;142.48;;;74.30;;
60430;SDS011;46285;45.122;20.726;2023-02-13T23:47:01;146.65;;;76.30;;
60430;SDS011;46285;45.122;20.726;2023-02-13T23:57:02;88.60;;;50.55;;
